Time;durP1;ratioP1;P1;durP2;ratioP2;P2;SDS_P1;SDS_P2;PMS_P1;PMS_P2;Temp;Humidity;BMP_temperature;BMP_pressure;BME280_temperature;BME280_humidity;BME280_pressure;Samples;Min_cycle;Max_cycle;Signal;HPM_P1;HPM_P2
2022/10/23 00:00:31;;;;;;;15.20;12.55;;;12.10;99.90;;;;;;6272066;22;20477;-77
2022/10/23 00:02:58;;;;;;;18.92;12.82;;;12.10;99.90;;;;;;6271445;22;20008;-78
2022/10/23 00:05:24;;;;;;;18.77;14.27;;;12.10;99.90;;;;;;6271837;22;20053;-77
2022/10/23 00:07:51;;;;;;;20.10;14.93;;;12.10;99.90;;;;;;6271085;22;20374;-78
2022/10/23 00:10:18;;;;;;;22.35;15.07;;;12.00;99.90;;;;;;6271855;22;20011;-77
2022/10/23 00:12:44;;;;;;;21.67;13.68;;;12.10;99.90;;;;;;6271736;22;20053;-78
2022/10/23 00:15:10;;;;;;;22.02;14.68;;;12.20;99.90;;;;;;6271788;22;20083;-77
2022/10/23 00:17:37;;;;;;;31.00;14.75;;;12.10;99.90;;;;;;6271831;22;20078;-78
2022/10/23 00:20:05;;;;;;;23.02;14.55;;;12.20;99.90;;;;;;6271258;22;20000;-78
2022/10/23 00:22:30;;;;;;;15.40;12.85;;;12.20;99.90;;;;;;6271758;22;20068;-77
2022/10/23 00:24:56;;;;;;;14.88;12.27;;;12.10;99.90;;;;;;6271486;22;20429;-78
2022/10/23 00:27:22;;;;;;;20.50;14.50;;;;;;;;;;6271447;22;20045;-77
2022/10/23 00:29:47;;;;;;;15.45;13.77;;;12.20;99.90;;;;;;6271521;22;19996;-78
2022/10/23 00:32:13;;;;;;;19.30;12.48;;;12.10;99.90;;;;;;6271480;22;20017;-77
2022/10/23 00:34:38;;;;;;;15.13;13.13;;;12.10;99.90;;;;;;6270882;22;20083;-77
2022/10/23 00:37:04;;;;;;;19.90;13.73;;;12.10;99.90;;;;;;6271565;22;20000;-77
2022/10/23 00:39:29;;;;;;;17.23;12.43;;;12.10;99.90;;;;;;6271714;22;20004;-77
2022/10/23 00:41:56;;;;;;;21.50;15.45;;;12.10;99.90;;;;;;6271359;22;20011;-78
2022/10/23 00:44:21;;;;;;;22.88;13.45;;;12.20;99.90;;;;;;6271576;22;20075;-78
2022/10/23 00:46:47;;;;;;;18.90;13.57;;;12.20;99.90;;;;;;6271695;22;20027;-77
2022/10/23 00:49:14;;;;;;;23.33;13.13;;;13.00;99.90;;;;;;6271191;22;20508;-78
2022/10/23 00:51:47;;;;;;;19.38;12.63;;;12.20;99.90;;;;;;6271737;22;20383;-78
2022/10/23 00:54:15;;;;;;;17.05;13.52;;;12.20;99.90;;;;;;6271685;22;20397;-77
2022/10/23 00:56:43;;;;;;;21.13;12.02;;;12.20;99.90;;;;;;6271967;22;20008;-78
2022/10/23 00:59:10;;;;;;;18.20;13.60;;;12.40;99.90;;;;;;6271310;22;20011;-78
2022/10/23 01:01:35;;;;;;;23.45;14.73;;;12.10;99.90;;;;;;6271777;22;20000;-78
2022/10/23 01:04:03;;;;;;;20.95;13.75;;;12.20;99.90;;;;;;6270901;22;19996;-77
2022/10/23 01:06:41;;;;;;;16.63;14.35;;;12.50;99.90;;;;;;6271787;22;20023;-78
2022/10/23 01:09:29;;;;;;;15.10;12.80;;;12.30;99.90;;;;;;6271621;22;20050;-77
2022/10/23 01:12:27;;;;;;;16.80;12.75;;;12.00;99.90;;;;;;6271425;22;20026;-77
2022/10/23 01:15:10;;;;;;;14.73;12.50;;;12.20;99.90;;;;;;6270978;22;20003;-78
2022/10/23 01:17:47;;;;;;;14.90;13.00;;;12.20;99.90;;;;;;6271674;22;20000;-78
2022/10/23 01:20:42;;;;;;;17.42;13.25;;;12.20;99.90;;;;;;6271175;22;20389;-78
2022/10/23 01:23:30;;;;;;;16.30;12.25;;;12.10;99.90;;;;;;6271450;22;20019;-78
2022/10/23 01:26:25;;;;;;;15.40;13.30;;;12.20;99.90;;;;;;6271576;22;20386;-77
2022/10/23 01:28:54;;;;;;;15.30;12.50;;;12.20;99.90;;;;;;6271361;22;20004;-78
2022/10/23 01:31:51;;;;;;;20.67;13.02;;;12.10;99.90;;;;;;6271346;22;20004;-78
2022/10/23 01:34:27;;;;;;;23.83;14.02;;;12.10;99.90;;;;;;6147109;23;20005;-77
2022/10/23 01:36:54;;;;;;;21.58;14.00;;;12.10;99.90;;;;;;6147790;23;20010;-77
2022/10/23 01:39:34;;;;;;;21.38;12.48;;;12.00;99.90;;;;;;6147851;23;20155;-77
2022/10/23 01:42:08;;;;;;;24.48;14.90;;;12.20;99.90;;;;;;6147857;23;20013;-77
2022/10/23 01:44:40;;;;;;;;;;;12.70;99.90;;;;;;6149321;23;20366;-78
2022/10/23 01:47:08;;;;;;;18.42;13.52;;;12.10;99.90;;;;;;6149095;23;20042;-78
2022/10/23 01:49:36;;;;;;;19.27;14.00;;;12.10;99.90;;;;;;6149785;23;20060;-77
2022/10/23 01:52:07;;;;;;;22.15;15.35;;;12.10;99.90;;;;;;6149543;23;20006;-78
2022/10/23 01:54:37;;;;;;;20.80;15.85;;;12.20;99.90;;;;;;6149643;23;20012;-78
2022/10/23 01:57:06;;;;;;;20.73;15.15;;;12.00;99.90;;;;;;6149528;23;20082;-78
2022/10/23 01:59:35;;;;;;;20.70;15.57;;;12.10;99.90;;;;;;6149354;23;20013;-78
2022/10/23 02:02:03;;;;;;;19.13;14.02;;;12.20;99.90;;;;;;6148824;23;20010;-78
2022/10/23 02:05:00;;;;;;;17.25;12.93;;;12.20;99.90;;;;;;6149326;23;20032;-77
2022/10/23 02:07:26;;;;;;;22.90;13.98;;;12.10;99.90;;;;;;6119398;23;20006;-77
2022/10/23 02:09:52;;;;;;;17.05;13.55;;;12.10;99.90;;;;;;6149429;23;20487;-77
2022/10/23 02:12:27;;;;;;;21.83;15.80;;;12.20;99.90;;;;;;6270642;22;20015;-77
2022/10/23 02:15:06;;;;;;;17.70;14.63;;;12.00;99.90;;;;;;6273036;22;19995;-78
2022/10/23 02:17:35;;;;;;;27.77;16.30;;;12.10;99.90;;;;;;6272208;22;19996;-78
2022/10/23 02:20:40;;;;;;;20.17;14.98;;;11.90;99.90;;;;;;6272547;22;19996;-78
2022/10/23 02:23:30;;;;;;;21.80;13.93;;;12.10;99.90;;;;;;6255097;22;20031;-77
2022/10/23 02:26:02;;;;;;;20.88;14.40;;;12.10;99.90;;;;;;6272408;22;20002;-77
2022/10/23 02:28:40;;;;;;;23.17;14.55;;;13.10;99.90;;;;;;6272528;22;20034;-78
2022/10/23 02:31:11;;;;;;;19.00;14.82;;;11.80;99.90;;;;;;6272073;22;19996;-78
2022/10/23 02:33:36;;;;;;;25.60;16.15;;;12.00;99.90;;;;;;6272856;22;20027;-77
2022/10/23 02:36:03;;;;;;;25.95;14.45;;;12.00;99.90;;;;;;6272527;22;20002;-78
2022/10/23 02:38:39;;;;;;;22.45;15.52;;;12.00;99.90;;;;;;6272313;22;20003;-78
2022/10/23 02:41:10;;;;;;;20.75;14.70;;;12.00;99.90;;;;;;6272601;22;20121;-78
2022/10/23 02:43:49;;;;;;;20.90;14.05;;;13.20;99.90;;;;;;6272530;22;20015;-78
2022/10/23 02:46:29;;;;;;;22.13;15.35;;;11.90;99.90;;;;;;6271834;22;20000;-78
2022/10/23 02:49:16;;;;;;;21.30;14.82;;;11.90;99.90;;;;;;6272567;22;20008;-78
2022/10/23 02:52:05;;;;;;;22.27;15.43;;;11.90;99.90;;;;;;6272606;22;19999;-78
2022/10/23 02:54:36;;;;;;;22.88;16.15;;;11.70;99.90;;;;;;6272342;22;20000;-78
2022/10/23 02:57:17;;;;;;;22.15;14.70;;;11.90;99.90;;;;;;6271925;22;20474;-77
2022/10/23 02:59:55;;;;;;;29.08;16.85;;;11.80;99.90;;;;;;6271871;22;19999;-78
2022/10/23 03:02:24;;;;;;;21.35;17.25;;;11.80;99.90;;;;;;6272004;22;20028;-78
2022/10/23 03:04:53;;;;;;;26.98;16.70;;;11.80;99.90;;;;;;6270614;22;20099;-78
2022/10/23 03:07:19;;;;;;;21.42;17.33;;;11.50;99.90;;;;;;6269857;22;20003;-77
2022/10/23 03:09:45;;;;;;;24.30;16.10;;;11.60;99.90;;;;;;6270053;22;20363;-77
2022/10/23 03:12:11;;;;;;;25.95;16.17;;;11.80;99.90;;;;;;6269826;22;20145;-77
2022/10/23 03:14:36;;;;;;;20.08;15.95;;;11.90;99.90;;;;;;6269099;22;20004;-78
2022/10/23 03:17:03;;;;;;;21.40;16.55;;;11.90;99.90;;;;;;6270181;22;20122;-78
2022/10/23 03:19:28;;;;;;;20.05;16.55;;;11.80;99.90;;;;;;6270353;22;19992;-77
2022/10/23 03:21:54;;;;;;;29.48;17.25;;;11.90;99.90;;;;;;6271287;22;19996;-77
2022/10/23 03:24:19;;;;;;;19.13;15.20;;;11.80;99.90;;;;;;6272127;22;20010;-78
2022/10/23 03:26:45;;;;;;;22.52;17.20;;;11.80;99.90;;;;;;6271497;22;20082;-78
2022/10/23 03:29:11;;;;;;;22.20;16.48;;;;;;;;;;6271324;22;20302;-78
2022/10/23 03:31:36;;;;;;;19.73;14.90;;;11.80;99.90;;;;;;6271692;22;20023;-79
2022/10/23 03:34:02;;;;;;;18.58;15.07;;;11.90;99.90;;;;;;6272213;22;20011;-78
2022/10/23 03:36:28;;;;;;;23.58;15.18;;;11.80;99.90;;;;;;6272104;22;19999;-78
2022/10/23 03:38:53;;;;;;;23.42;15.82;;;12.00;99.90;;;;;;6271785;22;20000;-78
2022/10/23 03:41:19;;;;;;;23.85;17.15;;;11.80;99.90;;;;;;6271352;22;20032;-77
2022/10/23 03:43:44;;;;;;;25.25;15.77;;;11.80;99.90;;;;;;6270890;22;20071;-78
2022/10/23 03:46:11;;;;;;;20.88;16.92;;;11.90;99.90;;;;;;6271354;22;20345;-78
2022/10/23 03:48:38;;;;;;;18.38;14.63;;;11.60;99.90;;;;;;6271722;22;20008;-78
2022/10/23 03:51:06;;;;;;;18.42;13.82;;;14.40;99.90;;;;;;6271994;22;20110;-77
2022/10/23 03:53:32;;;;;;;23.23;14.50;;;13.40;99.90;;;;;;6271896;22;20075;-78
2022/10/23 03:55:58;;;;;;;25.05;15.70;;;11.90;99.90;;;;;;6271585;22;20027;-78
2022/10/23 03:58:23;;;;;;;19.08;14.40;;;11.90;99.90;;;;;;6271059;22;20007;-78
2022/10/23 04:00:49;;;;;;;20.70;17.05;;;12.10;99.90;;;;;;6271697;22;20348;-78
2022/10/23 04:03:14;;;;;;;20.13;15.02;;;12.00;99.90;;;;;;6271764;22;20317;-77
2022/10/23 04:05:41;;;;;;;20.30;14.65;;;12.00;99.90;;;;;;6271632;22;20033;-78
2022/10/23 04:08:07;;;;;;;24.45;16.80;;;12.00;99.90;;;;;;6271498;22;20413;-78
2022/10/23 04:10:32;;;;;;;21.75;16.65;;;12.10;99.90;;;;;;6271254;22;19995;-78
2022/10/23 04:12:58;;;;;;;27.02;16.40;;;12.10;99.90;;;;;;6270838;22;20000;-77
2022/10/23 04:15:23;;;;;;;27.85;15.60;;;12.10;99.90;;;;;;6271330;22;20344;-77
2022/10/23 04:17:49;;;;;;;23.92;15.57;;;12.20;99.90;;;;;;6271445;22;20456;-78
2022/10/23 04:20:14;;;;;;;23.48;15.55;;;12.20;99.90;;;;;;6271287;22;20098;-78
2022/10/23 04:22:40;;;;;;;25.60;15.45;;;12.20;99.90;;;;;;6271297;22;20011;-78
2022/10/23 04:25:06;;;;;;;22.05;15.15;;;12.20;99.90;;;;;;6271314;22;20414;-78
2022/10/23 04:27:33;;;;;;;26.95;17.20;;;12.20;99.90;;;;;;6270438;22;20062;-78
2022/10/23 04:29:58;;;;;;;23.33;16.95;;;12.30;99.90;;;;;;6270969;22;20004;-78
2022/10/23 04:32:24;;;;;;;26.70;19.10;;;12.20;99.90;;;;;;6271259;22;20007;-78
2022/10/23 04:34:50;;;;;;;30.20;18.40;;;12.20;99.90;;;;;;6270812;22;20429;-77
2022/10/23 04:37:15;;;;;;;27.45;18.80;;;12.30;99.90;;;;;;6270144;22;20445;-77
2022/10/23 04:39:41;;;;;;;28.15;21.27;;;12.20;99.90;;;;;;6271045;22;19999;-77
2022/10/23 04:42:06;;;;;;;38.75;21.17;;;12.30;99.90;;;;;;6270496;22;20398;-77
2022/10/23 04:44:32;;;;;;;27.38;18.38;;;12.20;99.90;;;;;;6271085;22;20387;-77
2022/10/23 04:46:57;;;;;;;31.95;20.20;;;12.20;99.90;;;;;;6270627;22;20103;-78
2022/10/23 04:49:23;;;;;;;29.50;19.52;;;12.20;99.90;;;;;;6271107;22;20030;-78
2022/10/23 04:51:48;;;;;;;24.05;16.85;;;12.20;99.90;;;;;;6271197;22;20074;-78
2022/10/23 04:54:14;;;;;;;33.38;18.00;;;12.20;99.90;;;;;;6271103;22;20000;-77
2022/10/23 04:56:39;;;;;;;29.85;18.27;;;12.30;99.90;;;;;;6270572;22;20039;-78
2022/10/23 04:59:05;;;;;;;27.33;16.38;;;12.20;99.90;;;;;;6271126;22;20008;-78
2022/10/23 05:01:30;;;;;;;21.35;16.27;;;12.30;99.90;;;;;;6271211;22;20347;-78
2022/10/23 05:03:56;;;;;;;22.48;16.20;;;12.20;99.90;;;;;;6271163;22;20004;-77
2022/10/23 05:06:22;;;;;;;23.85;15.82;;;12.30;99.90;;;;;;6271073;22;19995;-78
2022/10/23 05:08:47;;;;;;;22.20;16.48;;;12.30;99.90;;;;;;6271117;22;20003;-78
2022/10/23 05:11:13;;;;;;;27.58;16.00;;;12.30;99.90;;;;;;6269135;22;20059;-78
2022/10/23 05:13:38;;;;;;;22.92;15.00;;;12.30;99.90;;;;;;6270762;22;20004;-77
2022/10/23 05:16:04;;;;;;;22.42;16.25;;;12.30;99.90;;;;;;6271259;22;20078;-78
2022/10/23 05:18:44;;;;;;;23.35;14.35;;;12.30;99.90;;;;;;6272187;22;20417;-77
2022/10/23 05:21:21;;;;;;;21.63;14.00;;;12.30;99.90;;;;;;6273242;22;20421;-78
2022/10/23 05:23:46;;;;;;;20.20;13.50;;;12.30;99.90;;;;;;6272965;22;20019;-78
2022/10/23 05:26:12;;;;;;;16.08;13.55;;;12.30;99.90;;;;;;6272503;22;20081;-78
2022/10/23 05:28:37;;;;;;;22.98;15.88;;;12.40;99.90;;;;;;6272658;22;20110;-77
2022/10/23 05:31:04;;;;;;;19.73;14.52;;;12.30;99.90;;;;;;6273113;22;20003;-78
2022/10/23 05:33:30;;;;;;;20.30;14.10;;;12.40;99.90;;;;;;6272996;22;20026;-78
2022/10/23 05:35:56;;;;;;;19.67;13.38;;;12.30;99.90;;;;;;6272778;22;20027;-78
2022/10/23 05:38:23;;;;;;;20.73;14.52;;;12.50;99.90;;;;;;6272950;22;20082;-78
2022/10/23 05:40:50;;;;;;;24.25;14.52;;;12.50;99.90;;;;;;6272337;22;20071;-77
2022/10/23 05:43:16;;;;;;;23.73;14.65;;;12.60;99.90;;;;;;6272794;22;20203;-78
2022/10/23 05:45:42;;;;;;;26.92;15.27;;;12.60;99.90;;;;;;6272929;22;20114;-78
2022/10/23 05:48:07;;;;;;;23.90;15.10;;;12.60;99.90;;;;;;6273030;22;20042;-78
2022/10/23 05:50:35;;;;;;;23.65;14.43;;;12.70;99.90;;;;;;6272962;22;20008;-78
2022/10/23 05:53:01;;;;;;;18.00;13.15;;;12.70;99.90;;;;;;6272613;22;20433;-78
2022/10/23 05:55:27;;;;;;;16.83;12.55;;;13.60;99.90;;;;;;6272298;22;20030;-78
2022/10/23 05:57:52;;;;;;;25.73;15.02;;;12.70;99.90;;;;;;6272481;22;20004;-78
2022/10/23 06:00:18;;;;;;;17.23;13.07;;;12.70;99.90;;;;;;6272740;22;20000;-78
2022/10/23 06:02:43;;;;;;;23.30;13.07;;;12.80;99.90;;;;;;6272679;22;20045;-78
2022/10/23 06:05:09;;;;;;;18.30;14.85;;;14.20;99.90;;;;;;6272692;22;20093;-77
2022/10/23 06:07:35;;;;;;;28.13;15.05;;;12.80;99.90;;;;;;6272542;22;20137;-78
2022/10/23 06:10:00;;;;;;;18.23;13.63;;;14.10;99.90;;;;;;6271899;22;20007;-78
2022/10/23 06:12:26;;;;;;;24.25;14.15;;;12.80;99.90;;;;;;6272908;22;20004;-78
2022/10/23 06:14:51;;;;;;;19.98;13.48;;;12.60;99.90;;;;;;6272616;22;20004;-77
2022/10/23 06:17:17;;;;;;;18.42;11.20;;;12.80;99.90;;;;;;6272670;22;20082;-78
2022/10/23 06:19:45;;;;;;;21.00;13.10;;;13.10;99.90;;;;;;6272459;22;19992;-77
2022/10/23 06:22:10;;;;;;;24.65;13.30;;;12.90;99.90;;;;;;6272637;22;20003;-78
2022/10/23 06:24:36;;;;;;;24.65;14.77;;;12.90;99.90;;;;;;6272229;22;20003;-78
2022/10/23 06:27:01;;;;;;;18.60;13.57;;;12.90;99.90;;;;;;6271980;22;20004;-78
2022/10/23 06:29:27;;;;;;;22.30;13.98;;;13.60;99.90;;;;;;6272231;22;20003;-78
2022/10/23 06:31:52;;;;;;;17.13;14.38;;;12.90;99.90;;;;;;6270523;22;20008;-78
2022/10/23 06:34:18;;;;;;;19.83;13.23;;;13.40;99.90;;;;;;6272284;22;20014;-78
2022/10/23 06:36:43;;;;;;;21.98;14.18;;;12.80;99.90;;;;;;6271996;22;20095;-78
2022/10/23 06:39:09;;;;;;;24.85;13.82;;;12.90;99.90;;;;;;6271958;22;20079;-78
2022/10/23 06:41:35;;;;;;;17.70;14.30;;;12.90;99.90;;;;;;6272426;22;20007;-78
2022/10/23 06:44:00;;;;;;;24.98;15.05;;;13.00;99.90;;;;;;6272053;22;20007;-78
2022/10/23 06:46:28;;;;;;;16.33;13.48;;;13.00;99.90;;;;;;6272586;22;20068;-78
2022/10/23 06:48:54;;;;;;;20.08;14.80;;;13.10;99.90;;;;;;6272389;22;20421;-78
2022/10/23 06:51:21;;;;;;;18.52;14.27;;;13.10;99.90;;;;;;6272155;22;20033;-78
2022/10/23 06:53:46;;;;;;;24.42;15.15;;;13.10;99.90;;;;;;6271662;22;20007;-78
2022/10/23 06:56:12;;;;;;;24.35;15.13;;;13.20;99.90;;;;;;6272112;22;20042;-78
2022/10/23 06:58:38;;;;;;;19.60;13.77;;;13.10;99.90;;;;;;6272067;22;20320;-78
2022/10/23 07:01:07;;;;;;;18.90;13.32;;;13.10;99.90;;;;;;6272030;22;20463;-78
2022/10/23 07:03:33;;;;;;;24.25;14.65;;;14.30;99.90;;;;;;6272272;22;20457;-78
2022/10/23 07:06:01;;;;;;;22.25;12.50;;;13.20;99.90;;;;;;6270927;22;20007;-72
2022/10/23 07:08:27;;;;;;;20.52;12.73;;;13.30;99.90;;;;;;6272186;22;20058;-72
2022/10/23 07:10:53;;;;;;;22.55;13.15;;;13.10;99.90;;;;;;6271860;22;20086;-72
2022/10/23 07:13:18;;;;;;;26.83;14.13;;;13.20;99.90;;;;;;6271501;22;20404;-72
2022/10/23 07:15:44;;;;;;;16.52;12.77;;;13.10;99.90;;;;;;6271910;22;19992;-72
2022/10/23 07:18:13;;;;;;;22.67;13.38;;;13.10;99.90;;;;;;6271984;22;20034;-72
2022/10/23 07:20:40;;;;;;;16.38;12.85;;;13.20;99.90;;;;;;6271220;22;19996;-72
2022/10/23 07:23:06;;;;;;;23.75;14.85;;;13.30;99.90;;;;;;6271723;22;20003;-72
2022/10/23 07:25:32;;;;;;;19.60;13.13;;;13.20;99.90;;;;;;6272012;22;20071;-73
2022/10/23 07:27:58;;;;;;;16.70;11.43;;;13.20;99.90;;;;;;6271314;22;20050;-72
2022/10/23 07:30:23;;;;;;;19.92;12.57;;;13.20;99.90;;;;;;6271820;22;20049;-73
2022/10/23 07:32:49;;;;;;;18.65;11.90;;;13.30;99.90;;;;;;6271765;22;20030;-73
2022/10/23 07:35:16;;;;;;;21.80;12.07;;;13.30;99.90;;;;;;6269311;22;20405;-73
2022/10/23 07:37:42;;;;;;;20.50;13.00;;;13.10;99.90;;;;;;6270393;22;20008;-74
2022/10/23 07:40:08;;;;;;;18.70;12.20;;;13.90;99.90;;;;;;6271136;22;20031;-74
2022/10/23 07:42:34;;;;;;;17.45;12.45;;;13.40;99.90;;;;;;6270297;22;20000;-75
2022/10/23 07:44:59;;;;;;;22.73;13.77;;;13.40;99.90;;;;;;6270847;22;19999;-73
2022/10/23 07:47:25;;;;;;;18.20;12.18;;;13.40;99.90;;;;;;6271158;22;20479;-73
2022/10/23 07:49:51;;;;;;;14.07;11.95;;;13.40;99.90;;;;;;6270522;22;20022;-74
2022/10/23 07:52:16;;;;;;;24.20;13.00;;;13.50;99.90;;;;;;6270196;22;20004;-73
2022/10/23 07:54:42;;;;;;;19.15;12.60;;;13.50;99.90;;;;;;6270729;22;20012;-73
2022/10/23 07:57:10;;;;;;;19.83;12.65;;;13.60;99.90;;;;;;6270841;22;20004;-74
2022/10/23 07:59:36;;;;;;;18.65;11.32;;;13.50;99.90;;;;;;6271127;22;20028;-73
2022/10/23 08:02:02;;;;;;;17.80;11.77;;;13.60;99.90;;;;;;6269170;22;20066;-74
2022/10/23 08:04:27;;;;;;;17.92;11.60;;;13.70;99.90;;;;;;6270601;22;20448;-73
2022/10/23 08:06:54;;;;;;;17.65;12.60;;;13.70;99.90;;;;;;6270661;22;20087;-74
2022/10/23 08:09:20;;;;;;;16.50;11.85;;;13.80;99.90;;;;;;6271205;22;20007;-74
2022/10/23 08:11:46;;;;;;;19.15;11.68;;;13.70;99.90;;;;;;6269874;22;20061;-73
2022/10/23 08:14:11;;;;;;;12.93;11.63;;;13.80;99.90;;;;;;6271337;22;20027;-73
2022/10/23 08:16:38;;;;;;;13.68;10.57;;;13.80;99.90;;;;;;6269685;22;20384;-73
2022/10/23 08:19:05;;;;;;;18.30;10.50;;;13.80;99.90;;;;;;6270863;22;20018;-73
2022/10/23 08:21:31;;;;;;;19.83;10.68;;;13.90;99.90;;;;;;6271589;22;19996;-73
2022/10/23 08:23:58;;;;;;;17.23;10.95;;;13.90;99.90;;;;;;6271435;22;20061;-73
2022/10/23 08:26:25;;;;;;;21.15;11.50;;;14.20;99.90;;;;;;6270849;22;20071;-73
2022/10/23 08:28:51;;;;;;;17.63;11.10;;;13.90;99.90;;;;;;6271259;22;20007;-73
2022/10/23 08:31:19;;;;;;;17.85;10.50;;;14.00;99.90;;;;;;6271418;22;20057;-73
2022/10/23 08:33:45;;;;;;;14.45;10.02;;;14.10;99.90;;;;;;6269065;22;20137;-73
2022/10/23 08:36:25;;;;;;;18.52;9.77;;;14.10;99.90;;;;;;6271247;22;20039;-73
2022/10/23 08:38:53;;;;;;;15.93;11.00;;;14.10;99.90;;;;;;6271293;22;20031;-73
2022/10/23 08:41:30;;;;;;;16.60;9.48;;;14.10;99.90;;;;;;6269891;22;19996;-73
2022/10/23 08:44:26;;;;;;;12.88;9.90;;;14.30;99.90;;;;;;6271140;22;20006;-73
2022/10/23 08:47:05;;;;;;;16.05;9.88;;;14.30;99.90;;;;;;6271255;22;20494;-73
2022/10/23 08:49:44;;;;;;;14.65;9.05;;;14.30;99.90;;;;;;6271021;22;20027;-73
2022/10/23 08:52:21;;;;;;;16.90;9.85;;;14.30;99.90;;;;;;6271056;22;20004;-73
2022/10/23 08:54:58;;;;;;;17.58;9.52;;;14.50;99.90;;;;;;6273096;22;20027;-74
2022/10/23 08:57:33;;;;;;;11.95;8.77;;;14.50;99.90;;;;;;6272630;22;20002;-73
2022/10/23 09:00:04;;;;;;;15.65;8.68;;;14.50;99.90;;;;;;6272910;22;20019;-72
2022/10/23 09:02:31;;;;;;;13.38;9.50;;;14.40;99.90;;;;;;6272366;22;19999;-73
2022/10/23 09:04:58;;;;;;;12.55;8.30;;;14.70;99.90;;;;;;6272646;22;20004;-73
2022/10/23 09:07:43;;;;;;;14.73;8.73;;;14.80;99.90;;;;;;6272993;22;20070;-73
2022/10/23 09:10:27;;;;;;;17.88;8.90;;;14.80;99.90;;;;;;6273192;22;20103;-73
2022/10/23 09:13:01;;;;;;;13.77;8.23;;;14.90;99.90;;;;;;6271426;22;20004;-73
2022/10/23 09:15:46;;;;;;;15.00;8.60;;;15.10;99.90;;;;;;6273397;22;20006;-73
2022/10/23 09:18:14;;;;;;;11.05;7.45;;;15.00;99.90;;;;;;6272454;22;20091;-73
2022/10/23 09:20:40;;;;;;;15.38;9.32;;;15.00;99.90;;;;;;6272813;22;20083;-73
2022/10/23 09:23:23;;;;;;;12.02;7.65;;;15.00;99.90;;;;;;6273040;22;20014;-73
2022/10/23 09:25:54;;;;;;;15.45;7.15;;;15.00;99.90;;;;;;6272867;22;20015;-73
2022/10/23 09:28:21;;;;;;;10.25;7.07;;;15.10;99.90;;;;;;6272662;22;20012;-73
2022/10/23 09:30:47;;;;;;;9.35;7.38;;;15.10;99.90;;;;;;6271153;22;20027;-72
2022/10/23 09:33:26;;;;;;;16.50;7.93;;;15.00;99.90;;;;;;6272069;22;20413;-73
2022/10/23 09:36:04;;;;;;;11.77;7.25;;;15.30;99.90;;;;;;6272599;22;20000;-72
2022/10/23 09:38:37;;;;;;;11.13;7.20;;;15.10;99.90;;;;;;6272485;22;20094;-73
2022/10/23 09:41:16;;;;;;;17.27;7.13;;;15.10;99.90;;;;;;6271501;22;20103;-73
2022/10/23 09:43:42;;;;;;;17.05;7.22;;;15.20;99.90;;;;;;6272698;22;19999;-73
2022/10/23 09:46:09;;;;;;;9.70;6.18;;;15.40;99.90;;;;;;6272426;22;19996;-73
2022/10/23 09:48:35;;;;;;;15.27;7.07;;;15.20;99.90;;;;;;6272700;22;20095;-73
2022/10/23 09:51:03;;;;;;;12.15;6.20;;;15.30;99.90;;;;;;6272600;22;20014;-72
2022/10/23 09:53:34;;;;;;;9.05;5.38;;;15.30;99.90;;;;;;6272295;22;20000;-73
2022/10/23 09:56:23;;;;;;;18.20;6.70;;;15.40;99.90;;;;;;6272649;22;20003;-73
2022/10/23 09:59:04;;;;;;;11.57;5.97;;;15.40;99.90;;;;;;6271994;22;20088;-72
2022/10/23 10:01:32;;;;;;;10.30;5.55;;;15.50;99.90;;;;;;6271201;22;20005;-72
2022/10/23 10:03:58;;;;;;;11.77;6.32;;;15.40;99.90;;;;;;6272445;22;20062;-72
2022/10/23 10:06:32;;;;;;;12.32;5.95;;;15.60;99.90;;;;;;6271830;22;20005;-72
2022/10/23 10:09:00;;;;;;;6.93;4.75;;;15.60;99.90;;;;;;6272139;22;20033;-72
2022/10/23 10:11:39;;;;;;;13.07;5.85;;;15.70;99.90;;;;;;6272299;22;20054;-72
2022/10/23 10:14:33;;;;;;;10.27;5.47;;;15.70;99.90;;;;;;6272483;22;20004;-72
2022/10/23 10:17:25;;;;;;;8.90;5.97;;;15.80;99.90;;;;;;6272334;22;20321;-72
2022/10/23 10:20:02;;;;;;;8.82;5.45;;;15.90;99.90;;;;;;6272309;22;20004;-73
2022/10/23 10:22:51;;;;;;;8.80;5.20;;;15.90;99.90;;;;;;6272109;22;20432;-72
2022/10/23 10:25:33;;;;;;;10.23;5.70;;;16.00;99.90;;;;;;6272647;22;20113;-72
2022/10/23 10:28:50;;;;;;;11.85;5.00;;;16.10;99.90;;;;;;6272291;22;20015;-72
2022/10/23 10:31:40;;;;;;;8.32;5.38;;;16.10;99.90;;;;;;6147691;23;20005;-73
2022/10/23 10:34:30;;;;;;;11.38;5.97;;;16.10;99.90;;;;;;6148312;23;20009;-72
2022/10/23 10:37:08;;;;;;;8.73;5.20;;;16.20;99.90;;;;;;6148150;23;20466;-73
2022/10/23 10:39:44;;;;;;;10.75;6.00;;;16.30;99.90;;;;;;6148361;23;20013;-74
2022/10/23 10:42:22;;;;;;;11.35;5.65;;;16.30;99.90;;;;;;6148945;23;20009;-73
2022/10/23 10:45:16;;;;;;;10.57;6.00;;;16.50;99.90;;;;;;6147806;23;20009;-73
2022/10/23 10:47:49;;;;;;;6.97;5.28;;;16.30;99.90;;;;;;6148303;23;20024;-73
2022/10/23 10:50:25;;;;;;;12.00;6.65;;;16.30;99.90;;;;;;6147700;23;20012;-73
2022/10/23 10:52:59;;;;;;;9.48;5.53;;;16.30;99.90;;;;;;6146804;23;20430;-73
2022/10/23 10:55:31;;;;;;;11.55;5.68;;;16.30;99.90;;;;;;6146840;23;20009;-73
2022/10/23 10:58:01;;;;;;;8.70;5.50;;;16.30;99.90;;;;;;6146420;23;20009;-72
2022/10/23 11:00:30;;;;;;;10.13;5.63;;;16.40;99.90;;;;;;6148915;23;20111;-72
2022/10/23 11:03:15;;;;;;;8.48;4.80;;;16.40;99.90;;;;;;6148096;23;20013;-73
2022/10/23 11:05:44;;;;;;;9.10;4.88;;;16.50;99.90;;;;;;6165268;22;20008;-72
2022/10/23 11:08:27;;;;;;;10.27;5.05;;;16.60;99.90;;;;;;6272409;22;20010;-72
2022/10/23 11:11:01;;;;;;;11.07;5.03;;;16.50;99.90;;;;;;6271667;22;20000;-72
2022/10/23 11:13:39;;;;;;;10.40;4.65;;;16.60;99.90;;;;;;6271688;22;20110;-72
2022/10/23 11:16:18;;;;;;;7.75;4.50;;;16.60;99.90;;;;;;6272093;22;20065;-72
2022/10/23 11:19:02;;;;;;;8.77;4.45;;;16.70;99.90;;;;;;6271684;22;20468;-72
2022/10/23 11:21:41;;;;;;;8.15;4.20;;;16.60;99.90;;;;;;6272167;22;20326;-73
2022/10/23 11:24:19;;;;;;;10.60;5.03;;;16.70;99.90;;;;;;6271600;22;20035;-72
2022/10/23 11:27:04;;;;;;;16.10;6.22;;;17.50;99.90;;;;;;6269713;22;20445;-72
2022/10/23 11:30:02;;;;;;;8.60;4.68;;;16.70;99.90;;;;;;6272074;22;20038;-71
2022/10/23 11:32:36;;;;;;;9.70;4.57;;;16.80;99.90;;;;;;6272083;22;20737;-72
2022/10/23 11:35:38;;;;;;;7.22;4.55;;;16.70;99.90;;;;;;6271838;22;19999;-72
2022/10/23 11:38:12;;;;;;;6.75;4.32;;;16.90;99.90;;;;;;6271439;22;20081;-73
2022/10/23 11:40:45;;;;;;;11.07;4.60;;;16.90;99.90;;;;;;6271726;22;20298;-72
2022/10/23 11:43:10;;;;;;;12.15;4.80;;;17.00;99.90;;;;;;6271218;22;20444;-72
2022/10/23 11:45:39;;;;;;;11.35;4.60;;;17.00;99.90;;;;;;6272035;22;20098;-71
2022/10/23 11:48:38;;;;;;;7.65;4.40;;;17.10;99.90;;;;;;6271678;22;20016;-72
2022/10/23 11:51:04;;;;;;;10.13;5.70;;;17.20;99.90;;;;;;6261038;22;20275;-72
2022/10/23 11:53:29;;;;;;;8.63;3.78;;;17.20;99.90;;;;;;6270214;22;20011;-72
2022/10/23 11:56:00;;;;;;;8.85;4.40;;;17.30;99.90;;;;;;6271394;22;20322;-72
2022/10/23 11:58:39;;;;;;;7.93;3.50;;;17.30;99.90;;;;;;6270007;22;20425;-72
2022/10/23 12:01:33;;;;;;;7.18;4.28;;;17.40;99.90;;;;;;6271519;22;19999;-72
2022/10/23 12:04:13;;;;;;;10.30;3.53;;;17.50;99.90;;;;;;6270992;22;20003;-72
2022/10/23 12:06:58;;;;;;;9.73;3.88;;;17.50;99.90;;;;;;6271281;22;20306;-72
2022/10/23 12:09:39;;;;;;;7.95;3.53;;;17.50;99.90;;;;;;6271837;22;20306;-72
2022/10/23 12:12:07;;;;;;;8.32;4.10;;;17.60;99.90;;;;;;6271124;22;19999;-72
2022/10/23 12:14:42;;;;;;;7.95;3.75;;;18.00;99.90;;;;;;6271474;22;19996;-72
2022/10/23 12:17:32;;;;;;;6.57;4.70;;;17.60;99.90;;;;;;6271443;22;20380;-72
2022/10/23 12:20:18;;;;;;;9.63;3.88;;;17.80;99.90;;;;;;6269732;22;20018;-72
2022/10/23 12:22:51;;;;;;;9.73;3.83;;;17.80;99.90;;;;;;6271367;22;19996;-72
2022/10/23 12:25:16;;;;;;;8.88;3.50;;;18.00;99.90;;;;;;6271107;22;19999;-72
2022/10/23 12:27:50;;;;;;;6.80;3.13;;;17.80;99.90;;;;;;6270900;22;20016;-72
2022/10/23 12:30:43;;;;;;;9.18;4.63;;;17.90;99.90;;;;;;6271437;22;20050;-72
2022/10/23 12:33:31;;;;;;;6.28;4.18;;;18.00;99.90;;;;;;6271411;22;20000;-72
2022/10/23 12:36:14;;;;;;;5.47;2.88;;;18.00;99.90;;;;;;6270778;22;20083;-71
2022/10/23 12:38:47;;;;;;;10.15;4.00;;;18.00;99.90;;;;;;6270816;22;20008;-71
2022/10/23 12:41:23;;;;;;;8.30;3.70;;;18.00;99.90;;;;;;6268753;22;20452;-72
2022/10/23 12:43:58;;;;;;;7.25;3.22;;;18.10;99.90;;;;;;6270611;22;20007;-72
2022/10/23 12:46:55;;;;;;;10.25;3.50;;;18.10;99.90;;;;;;6270743;22;20006;-72
2022/10/23 12:49:23;;;;;;;3.60;2.22;;;18.10;99.90;;;;;;6246665;22;20380;-72
2022/10/23 12:52:00;;;;;;;4.93;2.90;;;18.20;99.90;;;;;;6270463;22;20015;-72
2022/10/23 12:54:26;;;;;;;6.53;2.53;;;18.20;99.90;;;;;;6270262;22;20019;-72